Terminal Aerodrome Forecast
Issued by NWS

Home | Current Version | Previous Version | Text Only | Print | Product List | Glossary On
Versions: 1 2 3 4 5 6 7 8 9 10 11 12 13 14 15 16 17 18
000
FTUS43 KOAX 251741
TAFCDR
TAF
KCDR 251741Z 2518/2618 17015G22KT P6SM SKC
     FM252300 16015KT P6SM VCTS SCT100CB
     FM260400 17018G28KT P6SM FEW250
     FM261100 19008KT P6SM FEW250=

USA.gov is the U.S. government's official web portal to all federal, state and local government web resources and services.